Latest Weather Observations for Warburton

IDD60801

Issued at 9:51 am CST Sunday 18 April 2021 (issued every 10 minutes, with the page automatically refreshed every 10 minutes)

About weather observations | Map of weather stations | Latest weather observations for NT | Other Formats
Station Details ID: 013011 Name: WARBURTON AIRFIELD Lat: -26.13 Lon: 126.58 Height: 459.0 m
Data from the previous 72 hours. | See also: Recent months at Warburton
Date/Time
CST
Temp
°C
App
Temp
°C
Dew
Point
°C
Rel
Hum
%
Delta-T
°C
Wind Press
QNH
hPa
Press
MSL
hPa
Rain since
9am
mm
Dir  Spd
km/h
Gust
km/h
Spd
kts
Gust
kts
18/09:30am 18.3 13.3 4.8 41 6.6 ENE 20 30 11 16 1025.8 1023.7 0.0
18/09:00am 17.8 13.8 5.1 43 6.3 ENE 15 22 8 12 1025.6 1023.5 0.0
18/08:30am 16.2 12.7 5.5 49 5.2 ENE 13 17 7 9 1025.4 1023.3 0.0
18/08:00am 12.8 10.3 4.8 58 3.8 ESE 7 9 4 5 1025.6 1023.5 0.0
18/07:30am 11.3 8.7 4.3 62 3.2 E 7 9 4 5 1025.2 1023.1 0.0
18/07:00am 11.9 8.2 4.4 60 3.5 ESE 13 17 7 9 1025.2 1023.1 0.0
18/06:30am 12.1 8.4 4.3 59 3.6 ESE 13 17 7 9 1025.0 1022.9 0.0
18/06:00am 11.2 7.8 4.0 61 3.3 ESE 11 13 6 7 1024.7 1022.6 0.0
18/05:30am 11.4 8.0 3.9 60 3.4 ESE 11 13 6 7 1024.5 1022.4 0.0
18/05:00am 11.7 8.2 3.7 58 3.7 SE 11 13 6 7 1024.3 1022.2 0.0
18/04:30am 12.0 8.9 3.8 57 3.7 ESE 9 11 5 6 1024.2 1022.0 0.0
18/04:00am 12.6 9.5 3.8 55 4.1 ESE 9 11 5 6 1024.3 1022.2 0.0
18/03:30am 13.1 9.3 3.7 53 4.3 SE 13 15 7 8 1024.1 1021.9 0.0
18/03:00am 13.5 10.0 3.6 51 4.6 SE 11 13 6 7 1024.1 1021.9 0.0
18/02:30am 14.6 10.8 3.7 48 5.1 ESE 13 17 7 9 1024.2 1022.0 0.0
18/02:00am 15.2 10.9 3.4 45 5.5 ESE 15 19 8 10 1024.4 1022.3 0.0
18/01:30am 13.9 10.3 3.1 48 4.9 SE 11 13 6 7 1024.7 1022.6 0.0
18/01:00am 14.3 11.1 3.2 47 5.1 ESE 9 11 5 6 1024.7 1022.6 0.0
18/12:30am 14.3 10.7 2.9 46 5.2 SE 11 13 6 7 1024.7 1022.6 0.0
18/12:00am 14.9 11.3 2.8 44 5.6 ESE 11 13 6 7 1024.8 1022.7 0.0
 
Date/Time
CST
Temp
°C
App
Temp
°C
Dew
Point
°C
Rel
Hum
%
Delta-T
°C
Wind Press
QNH
hPa
Press
MSL
hPa
Rain since
9am
mm
Dir  Spd
km/h
Gust
km/h
Spd
kts
Gust
kts
17/11:30pm 15.0 10.9 2.5 43 5.7 SE 13 13 7 7 1025.2 1023.1 0.0
17/11:00pm 15.4 12.1 2.2 41 6.0 SE 9 11 5 6 1025.7 1023.6 0.0
17/10:30pm 16.8 13.1 2.4 38 6.6 ESE 11 15 6 8 1025.7 1023.6 0.0
17/10:00pm 17.4 13.7 2.2 36 7.0 ESE 11 15 6 8 1025.7 1023.6 0.0
17/09:30pm 17.6 13.9 2.4 36 7.0 SE 11 13 6 7 1025.7 1023.6 0.0
17/09:00pm 18.1 14.8 2.4 35 7.3 SE 9 13 5 7 1025.4 1023.3 0.0
17/08:30pm 18.9 15.5 1.9 32 7.9 ESE 9 11 5 6 1025.0 1022.9 0.0
17/08:00pm 20.3 16.5 1.7 29 8.7 ESE 11 13 6 7 1024.9 1022.8 0.0
17/07:30pm 21.7 17.5 1.9 27 9.4 E 13 19 7 10 1024.6 1022.5 0.0
17/07:00pm 22.5 17.6 2.1 26 9.8 E 17 22 9 12 1024.7 1022.6 0.0
17/06:30pm 23.6 18.1 1.9 24 10.4 ESE 20 28 11 15 1024.6 1022.5 0.0
17/06:00pm 24.3 18.4 1.9 23 10.9 E 22 28 12 15 1024.3 1022.2 0.0
17/05:30pm 24.6 19.1 2.1 23 10.9 ESE 20 35 11 19 1024.2 1022.0 0.0
17/05:00pm 25.2 19.5 2.6 23 11.2 ESE 22 33 12 18 1024.1 1021.9 0.0
17/04:30pm 25.0 19.6 2.4 23 11.1 ESE 20 30 11 16 1024.0 1021.8 0.0
17/04:00pm 25.2 19.3 2.0 22 11.4 SE 22 32 12 17 1024.1 1021.9 0.0
17/03:30pm 25.2 20.1 3.2 24 11.0 ESE 19 28 10 15 1024.2 1022.0 0.0
17/03:00pm 25.0 20.3 3.0 24 10.9 ESE 17 24 9 13 1024.4 1022.3 0.0
17/02:30pm 24.6 19.5 3.3 25 10.6 ESE 19 28 10 15 1024.6 1022.5 0.0
17/02:00pm 24.3 19.0 3.0 25 10.5 E 20 28 11 15 1024.9 1022.8 0.0
17/01:30pm 23.3 18.2 3.3 27 9.8 E 19 30 10 16 1025.3 1023.2 0.0
17/01:00pm 23.2 17.9 3.2 27 9.9 ENE 20 32 11 17 1026.0 1023.8 0.0
17/12:30pm 22.5 17.7 2.6 27 9.6 E 17 32 9 17 1026.6 1024.5 0.0
17/12:00pm 22.0 16.4 3.2 29 9.2 E 22 33 12 18 1027.1 1025.0 0.0
17/11:30am 21.5 15.5 3.2 30 8.9 ENE 24 37 13 20 1027.6 1025.5 0.0
17/11:00am 21.0 15.0 3.2 31 8.6 E 24 32 13 17 1028.1 1026.1 0.0
17/10:30am 20.4 14.4 3.2 32 8.3 ENE 24 35 13 19 1028.1 1026.1 0.0
17/10:00am 20.0 14.1 4.1 35 7.8 E 24 33 13 18 1028.3 1026.2 0.0
17/09:30am 19.2 13.7 4.2 37 7.3 E 22 32 12 17 1028.1 1026.1 0.0
17/09:00am 17.9 12.6 4.8 42 6.4 E 22 33 12 18 1027.7 1025.6 0.0
17/08:30am 14.7 11.3 6.0 56 4.2 ESE 13 19 7 10 1027.6 1025.5 0.0
17/08:00am 12.0 9.0 5.9 66 2.9 SE 11 15 6 8 1027.3 1025.2 0.0
17/07:30am 10.6 7.5 5.4 70 2.4 ESE 11 13 6 7 1027.0 1024.9 0.0
17/07:00am 11.7 8.9 5.1 64 3.1 SE 9 11 5 6 1027.0 1024.9 0.0
17/06:30am 14.5 10.9 4.8 52 4.6 E 13 17 7 9 1026.7 1024.6 0.0
17/06:00am 15.0 10.6 5.0 51 4.8 E 17 20 9 11 1026.4 1024.3 0.0
17/05:30am 15.1 10.8 5.3 52 4.7 E 17 22 9 12 1026.3 1024.2 0.0
17/05:00am 15.2 10.6 5.4 52 4.8 E 19 26 10 14 1025.8 1023.7 0.0
17/04:30am 15.4 11.2 5.6 52 4.8 E 17 24 9 13 1025.7 1023.6 0.0
17/04:00am 15.6 11.0 5.5 51 4.9 E 19 24 10 13 1025.7 1023.6 0.0
17/03:30am 15.6 11.3 5.2 50 5.0 E 17 19 9 10 1025.8 1023.7 0.0
17/03:00am 15.7 11.3 5.0 49 5.2 E 17 22 9 12 1025.8 1023.7 0.0
17/02:30am 13.3 10.3 4.2 54 4.2 ESE 9 11 5 6 1025.7 1023.6 0.0
17/02:00am 14.7 11.7 4.1 49 5.0 SE 9 11 5 6 1026.0 1023.8 0.0
17/01:30am 15.9 12.5 4.0 45 5.6 ESE 11 15 6 8 1026.1 1023.9 0.0
17/01:00am 17.1 12.9 3.8 41 6.4 E 15 20 8 11 1026.1 1023.9 0.0
17/12:30am 17.4 13.1 3.3 39 6.6 E 15 19 8 10 1026.2 1024.0 0.0
17/12:00am 17.5 13.5 3.0 38 6.8 E 13 17 7 9 1026.1 1023.9 0.0
 
Date/Time
CST
Temp
°C
App
Temp
°C
Dew
Point
°C
Rel
Hum
%
Delta-T
°C
Wind Press
QNH
hPa
Press
MSL
hPa
Rain since
9am
mm
Dir  Spd
km/h
Gust
km/h
Spd
kts
Gust
kts
16/11:30pm 18.3 14.0 3.0 36 7.2 E 15 20 8 11 1025.8 1023.7 0.0
16/11:00pm 18.3 13.6 3.0 36 7.3 E 17 22 9 12 1026.1 1023.9 0.0
16/10:30pm 18.5 14.3 3.6 37 7.1 E 15 22 8 12 1026.0 1023.8 0.0
16/10:00pm 18.5 14.6 3.6 37 7.2 ESE 13 17 7 9 1025.7 1023.6 0.0
16/09:30pm 18.0 14.7 2.7 36 7.2 E 9 13 5 7 1025.7 1023.6 0.0
16/09:00pm 18.9 15.3 2.7 34 7.7 ESE 11 19 6 10 1025.5 1023.4 0.0
16/08:30pm 19.6 15.2 2.5 32 8.1 ESE 15 20 8 11 1025.2 1023.1 0.0
16/08:00pm 20.1 16.0 2.0 30 8.5 ESE 13 17 7 9 1025.0 1022.9 0.0
16/07:30pm 21.1 16.6 2.4 29 8.9 SE 15 24 8 13 1024.6 1022.5 0.0
16/07:00pm 21.7 16.9 2.4 28 9.3 ESE 17 24 9 13 1024.1 1021.9 0.0
16/06:30pm 22.8 17.4 2.3 26 9.9 ESE 20 30 11 16 1023.7 1021.5 0.0
16/06:00pm 23.8 18.7 3.2 26 10.2 SE 19 26 10 14 1023.4 1021.3 0.0
16/05:30pm 24.0 18.2 2.2 24 10.6 ESE 22 35 12 19 1023.1 1021.0 0.0
16/05:00pm 24.3 18.4 1.9 23 10.9 ESE 22 33 12 18 1023.0 1020.9 0.0
16/04:30pm 24.4 18.6 2.5 24 10.7 ESE 22 35 12 19 1022.9 1020.8 0.0
16/04:00pm 24.7 17.5 2.8 24 10.8 SE 30 43 16 23 1023.0 1020.9 0.0
16/03:30pm 24.6 17.7 2.7 24 10.8 ESE 28 39 15 21 1023.1 1021.0 0.0
16/03:00pm 24.3 18.4 4.1 27 10.2 ESE 24 35 13 19 1023.3 1021.2 0.0
16/02:30pm 24.5 18.3 4.3 27 10.2 ESE 26 39 14 21 1023.5 1021.4 0.0
16/02:00pm 23.1 16.5 4.1 29 9.5 ESE 28 43 15 23 1024.0 1021.8 0.0
16/01:30pm 23.0 16.7 5.9 33 8.8 ESE 28 37 15 20 1024.4 1022.3 0.0
16/01:00pm 22.9 16.9 5.3 32 9.0 ESE 26 35 14 19 1024.9 1022.8 0.0
16/12:30pm 22.1 16.4 4.7 32 8.7 E 24 39 13 21 1025.4 1023.3 0.0
16/12:00pm 20.6 13.8 5.0 36 7.8 ESE 30 43 16 23 1026.0 1023.8 0.0
16/11:30am 20.3 13.1 5.1 37 7.6 E 32 46 17 25 1026.3 1024.2 0.0
16/11:00am 19.5 12.3 5.2 39 7.1 ESE 32 44 17 24 1026.4 1024.3 0.0
16/10:30am 18.7 11.6 5.5 42 6.6 ESE 32 46 17 25 1026.5 1024.4 0.0
16/10:00am 17.9 11.2 5.8 45 6.1 ESE 30 44 16 24 1026.6 1024.5 0.0
16/09:30am 16.5 11.0 6.1 50 5.2 ESE 24 35 13 19 1026.5 1024.4 0.0
16/09:00am 14.8 10.2 6.4 57 4.2 ESE 20 30 11 16 1026.1 1023.9 0.0
16/08:30am 12.7 8.6 6.3 65 3.1 ESE 17 26 9 14 1025.7 1023.6 0.0
16/08:00am 10.8 7.9 6.4 74 2.1 SE 11 13 6 7 1025.4 1023.3 0.0
16/07:30am 9.2 6.6 6.3 82 1.4 SE 9 13 5 7 1025.1 1023.0 0.0
16/07:00am 9.1 6.5 6.2 82 1.4 SE 9 11 5 6 1024.9 1022.8 0.0
16/06:30am 9.6 6.7 6.7 82 1.4 SE 11 13 6 7 1024.5 1022.4 0.0
16/06:00am 9.0 6.5 6.6 85 1.1 SE 9 11 5 6 1024.2 1022.0 0.0
16/05:30am 9.1 7.0 6.7 85 1.1 SE 7 9 4 5 1024.0 1021.8 0.0
16/05:00am 9.5 7.4 6.6 82 1.4 SE 7 9 4 5 1023.8 1021.6 0.0
16/04:30am 10.1 7.5 6.1 76 1.9 SSE 9 11 5 6 1023.5 1021.4 0.0
16/04:00am 10.9 8.3 6.1 72 2.3 SSE 9 9 5 5 1023.5 1021.4 0.0
16/03:30am 12.0 9.1 6.7 70 2.6 SE 11 13 6 7 1023.7 1021.5 0.0
16/03:00am 12.0 9.1 6.5 69 2.7 SE 11 13 6 7 1023.7 1021.5 0.0
16/02:30am 12.1 9.2 6.4 68 2.8 SE 11 13 6 7 1023.8 1021.6 0.0
16/02:00am 12.4 9.5 6.5 67 2.9 SE 11 15 6 8 1023.8 1021.6 0.0
16/01:30am 12.4 9.5 6.7 68 2.8 ESE 11 13 6 7 1023.8 1021.6 0.0
16/01:00am 12.7 9.9 7.0 68 2.8 ESE 11 13 6 7 1023.8 1021.6 0.0
16/12:30am 13.0 10.4 7.7 70 2.7 ESE 11 13 6 7 1023.8 1021.6 0.0
16/12:00am 13.5 10.8 8.8 73 2.4 SE 13 17 7 9 1024.0 1021.8 0.0
 
Date/Time
CST
Temp
°C
App
Temp
°C
Dew
Point
°C
Rel
Hum
%
Delta-T
°C
Wind Press
QNH
hPa
Press
MSL
hPa
Rain since
9am
mm
Dir  Spd
km/h
Gust
km/h
Spd
kts
Gust
kts
15/11:30pm 12.9 11.0 9.2 78 1.9 SE 9 13 5 7 1024.0 1021.8 0.0
15/11:00pm 13.7 11.5 9.4 75 2.2 ESE 11 15 6 8 1024.1 1021.9 0.0
15/10:30pm 14.2 12.1 9.8 75 2.3 SE 11 13 6 7 1024.1 1021.9 0.0
15/10:00pm 14.9 12.9 10.3 74 2.5 SE 11 13 6 7 1023.9 1021.7 0.0
15/09:30pm 15.8 13.5 10.3 70 3.0 ESE 13 17 7 9 1023.7 1021.5 0.0
15/09:00pm 16.5 14.2 10.4 67 3.3 ESE 13 17 7 9 1023.3 1021.2 0.0
15/08:30pm 16.8 15.0 10.9 68 3.2 ESE 11 15 6 8 1023.0 1020.9 0.0
15/08:00pm 17.4 15.2 10.8 65 3.6 ESE 13 15 7 8 1022.7 1020.6 0.0
15/07:30pm 18.3 15.7 10.7 61 4.2 ESE 15 20 8 11 1022.4 1020.3 0.0
15/07:00pm 19.1 16.0 10.4 57 4.8 ESE 17 26 9 14 1022.1 1019.9 0.0
15/06:30pm 19.7 16.1 10.4 55 5.1 ESE 20 28 11 15 1021.8 1019.6 0.0
15/06:00pm 19.8 15.4 10.5 55 5.1 ESE 24 33 13 18 1021.4 1019.2 0.0
15/05:30pm 20.2 15.5 10.6 54 5.3 ESE 26 33 14 18 1021.0 1018.9 0.0
15/05:00pm 20.8 15.7 10.6 52 5.7 ESE 28 35 15 19 1021.0 1018.9 0.0
15/04:30pm 20.0 15.3 10.7 55 5.2 ESE 26 39 14 21 1021.5 1019.3 0.0
15/04:00pm 19.8 15.4 10.5 55 5.1 ESE 24 33 13 18 1021.5 1019.3 0.0
15/03:30pm 19.3 15.1 11.1 59 4.6 ESE 24 35 13 19 1021.6 1019.4 0.0
15/03:00pm 20.3 15.9 11.8 58 4.8 SE 26 37 14 20 1021.5 1019.3 0.0
15/02:30pm 19.0 15.3 11.6 62 4.1 ESE 22 32 12 17 1021.8 1019.6 0.0
15/02:00pm 18.2 13.5 10.8 62 4.1 ESE 26 32 14 17 1022.2 1020.0 0.0
15/01:30pm 17.9 13.1 11.7 67 3.5 ESE 28 41 15 22 1022.4 1020.3 0.0
15/01:00pm 17.4 12.6 11.7 69 3.2 SE 28 39 15 21 1022.9 1020.8 0.0
15/12:30pm 17.3 12.5 11.8 70 3.1 SE 28 39 15 21 1023.3 1021.2 0.0
15/12:00pm 16.8 12.8 11.7 72 2.8 ESE 24 32 13 17 1023.4 1021.3 0.0
15/11:30am 16.1 11.9 12.3 78 2.1 ESE 26 41 14 22 1023.8 1021.6 0.0

Other formats

Comma delimited format used in spreadsheet applications
http://www.bom.gov.au/fwo/IDD60801/IDD60801.94457.axf

JavaScript Object Notation format (JSON) in row-major order
http://www.bom.gov.au/fwo/IDD60801/IDD60801.94457.json

Data quality

Most of these data are generated automatically and are frequently updated. Quality checks on data are not normally performed. It is possible for incorrect values to appear. Refer to information at About Latest Weather Observations and please check the disclaimer before using these data.